Portada
METAR-TAF:

METAR-TAF

Aeropuertos :

Reus, España

Aeropuerto de Reus

latitud: 41-09N, longitud: 001-10E, altitud: 71 m

Observación

El informe se hizo hace 27 minutos, a las 02:30 UTC
Viento 17 kt del oeste
Temperatura 9°C
Humedad 57%
Presión 1022 hPa
Visibilidad 10 km o más

METAR: LERS 180230Z AUTO 26017KT 9999 NCD 09/01 Q1022

Hora: 03:57 (02:57 UTC)

Pronóstico

El informe se hizo hace 57 minutos, a las 02:00 UTC
Pronóstico válido del 18 a las 03 UTC al 19 a las 03 UTC
Viento 8 kt del oeste
Visibilidad 10 km o más
Escasas nubes a una altura de 2000 ft
Temporalmente
del 18 a las 03 UTC al 18 a las 15 UTC
Viento 12 kt del oeste con ráfagas de 24 kt
Probabilidad 30% :
Temporalmente
del 18 a las 15 UTC al 18 a las 19 UTC
Viento 6 kt del este-sureste

TAF: LERS 180200Z 1803/1903 28008KT 9999 FEW020 TX16/1813Z TN05/1806Z TEMPO 1803/1815 28012G24KT PROB30 TEMPO 1815/1819 12006KT

Observaciones y pronósticos meteorológicos de más de 4000 aeropuertos (mensajes METAR y TAF).

Los puntos amarillos y rojos representan las estaciones disponibles.

Ponga el ratón en el punto deseado para ver el nombre de la estación.

Haga clic para ver las observaciones y los pronósticos meteorológicos.

Para cambiar el mapa : haga clic en los botones verdes con una cruz de color negro para hacer un zoom, en el botón verde con un guión para alejar o en las flechas verdes para mapas adyacentes.


METAR-TAF: